Time;durP1;ratioP1;P1;durP2;ratioP2;P2;SDS_P1;SDS_P2;PMS_P1;PMS_P2;Temp;Humidity;BMP_temperature;BMP_pressure;BME280_temperature;BME280_humidity;BME280_pressure;Samples;Min_cycle;Max_cycle;Signal;HPM_P1;HPM_P2
2023/10/28 05:46:48;;;;;;;4.63;1.65;;;;;;;;;;10498972;27;20414;-88
2023/10/28 05:51:49;;;;;;;;;;;;;;;;;;10500271;28;20031;-88
2023/10/28 05:56:50;;;;;;;2.70;1.48;;;;;;;;;;10525787;28;19920;-89
2023/10/28 06:01:51;;;;;;;3.75;1.17;;;;;;;;;;10464240;28;20035;-87
2023/10/28 06:06:52;;;;;;;3.58;1.20;;;;;;;;;;10455465;28;20108;-88
2023/10/28 06:11:54;;;;;;;;;;;;;;;;;;10455068;28;20124;-87
2023/10/28 06:16:55;;;;;;;2.53;1.15;;;;;;;;;;10497551;28;19915;-89
2023/10/28 06:21:56;;;;;;;3.50;1.30;;;;;;;;;;10456642;28;20112;-88
2023/10/28 06:26:59;;;;;;;3.05;1.25;;;;;;;;;;10461354;28;20036;-88
2023/10/28 06:32:00;;;;;;;1.80;0.98;;;;;;;;;;10466222;28;20109;-89
2023/10/28 06:37:01;;;;;;;2.63;1.00;;;;;;;;;;10461163;28;20472;-89
2023/10/28 06:42:04;;;;;;;2.33;1.15;;;;;;;;;;10463833;28;20075;-87
2023/10/28 06:47:05;;;;;;;1.83;1.35;;;;;;;;;;10488725;28;20013;-86
2023/10/28 06:52:07;;;;;;;2.45;1.10;;;;;;;;;;10499138;28;20040;-86
2023/10/28 06:57:08;;;;;;;2.05;1.17;;;;;;;;;;10470802;28;20129;-88
2023/10/28 07:02:09;;;;;;;2.03;1.15;;;;;;;;;;10432486;28;20464;-89
2023/10/28 07:07:14;;;;;;;2.65;1.30;;;;;;;;;;10441822;28;20364;-88
2023/10/28 07:12:15;;;;;;;3.03;1.00;;;;;;;;;;10437105;28;20513;-89
2023/10/28 07:17:16;;;;;;;1.50;0.90;;;;;;;;;;10434723;28;20551;-89
2023/10/28 07:22:20;;;;;;;3.03;1.00;;;;;;;;;;10433341;28;20052;-89
2023/10/28 07:27:21;;;;;;;1.95;0.98;;;;;;;;;;10440775;28;20116;-89
2023/10/28 07:32:22;;;;;;;3.63;1.58;;;;;;;;;;10441409;28;20030;-89
2023/10/28 07:37:23;;;;;;;1.60;0.95;;;;;;;;;;10441019;28;20025;-89
2023/10/28 07:42:26;;;;;;;1.50;1.10;;;;;;;;;;10449076;28;20039;-87
2023/10/28 07:47:27;;;;;;;3.17;0.90;;;;;;;;;;10450195;28;20034;-86
2023/10/28 07:52:29;;;;;;;2.95;1.02;;;;;;;;;;10446236;28;20088;-83
2023/10/28 07:57:30;;;;;;;3.50;0.80;;;;;;;;;;10443764;28;20095;-84
2023/10/28 08:02:31;;;;;;;3.63;0.90;;;;;;;;;;10467935;28;20056;-83
2023/10/28 08:07:32;;;;;;;2.38;0.95;;;;;;;;;;10428310;28;20053;-85
2023/10/28 08:12:34;;;;;;;3.10;0.85;;;;;;;;;;10425303;28;20026;-84
2023/10/28 08:17:35;;;;;;;2.20;0.90;;;;;;;;;;10425626;28;20049;-85
2023/10/28 08:22:36;;;;;;;2.75;0.90;;;;;;;;;;10428127;28;20033;-85
2023/10/28 08:27:38;;;;;;;2.83;0.90;;;;;;;;;;10427371;28;20432;-84
2023/10/28 08:38:05;;;;;;;1.98;1.00;;;;;;;;;;10428627;28;20037;-85
2023/10/28 08:43:06;;;;;;;2.42;0.95;;;;;;;;;;10429697;28;20041;-84
2023/10/28 08:48:10;;;;;;;5.28;2.28;;;;;;;;;;10429809;28;20045;-85
2023/10/28 08:53:12;;;;;;;3.40;1.38;;;;;;;;;;10422202;28;20030;-85
2023/10/28 08:58:14;;;;;;;2.20;1.40;;;;;;;;;;10438875;28;20012;-84
2023/10/28 09:03:15;;;;;;;3.85;1.10;;;;;;;;;;10441471;28;20124;-83
2023/10/28 09:08:16;;;;;;;3.15;1.80;;;;;;;;;;10429431;28;20037;-83
2023/10/28 09:13:17;;;;;;;3.20;0.95;;;;;;;;;;10425724;28;20060;-84
2023/10/28 09:18:18;;;;;;;2.22;0.93;;;;;;;;;;10426842;28;20025;-82
2023/10/28 09:23:19;;;;;;;2.65;0.90;;;;;;;;;;10435483;28;20044;-84
2023/10/28 09:28:20;;;;;;;1.73;0.93;;;;;;;;;;10426209;28;20030;-83
2023/10/28 09:33:22;;;;;;;1.95;0.82;;;;;;;;;;10428750;28;20465;-83
2023/10/28 09:38:23;;;;;;;3.20;0.77;;;;;;;;;;10428252;28;20028;-83
2023/10/28 09:43:24;;;;;;;2.40;1.00;;;;;;;;;;10427180;28;20057;-82
2023/10/28 09:48:29;;;;;;;3.13;1.63;;;;;;;;;;10427866;28;20580;-84
2023/10/28 09:53:32;;;;;;;2.78;1.52;;;;;;;;;;10429247;28;20120;-84
2023/10/28 09:58:41;;;;;;;5.72;1.00;;;;;;;;;;10430269;28;20021;-83
2023/10/28 10:03:45;;;;;;;2.40;1.02;;;;;;;;;;10430461;28;20025;-83
2023/10/28 10:08:49;;;;;;;1.95;0.90;;;;;;;;;;10456216;28;20052;-83
2023/10/28 10:13:50;;;;;;;4.43;1.00;;;;;;;;;;10436735;28;20022;-84
2023/10/28 10:18:54;;;;;;;3.08;0.98;;;;;;;;;;10425664;28;20022;-82
2023/10/28 10:23:55;;;;;;;1.95;0.90;;;;;;;;;;10425348;28;20100;-84
2023/10/28 10:29:00;;;;;;;2.58;0.75;;;;;;;;;;10423162;28;20516;-84
2023/10/28 10:34:07;;;;;;;3.05;1.00;;;;;;;;;;10436077;28;20052;-83
2023/10/28 10:39:15;;;;;;;2.22;1.00;;;;;;;;;;10442778;28;20026;-82
2023/10/28 10:44:36;;;;;;;3.33;1.20;;;;;;;;;;10435225;28;20033;-83
2023/10/28 10:49:40;;;;;;;2.20;1.08;;;;;;;;;;10432455;28;20024;-82
2023/10/28 10:54:41;;;;;;;1.52;1.00;;;;;;;;;;10434316;28;20029;-82
2023/10/28 10:59:42;;;;;;;1.67;0.90;;;;;;;;;;10434662;28;20021;-83
2023/10/28 11:04:44;;;;;;;2.20;0.88;;;;;;;;;;10435807;28;20021;-83
2023/10/28 11:09:45;;;;;;;2.08;1.20;;;;;;;;;;10438226;28;20049;-83
2023/10/28 11:14:48;;;;;;;2.42;0.90;;;;;;;;;;10452908;28;20010;-83
2023/10/28 11:19:50;;;;;;;3.13;1.10;;;;;;;;;;10439264;28;20105;-82
2023/10/28 11:24:55;;;;;;;2.50;0.90;;;;;;;;;;10432094;28;20072;-84
2023/10/28 11:29:57;;;;;;;2.85;1.25;;;;;;;;;;10435711;28;20038;-84
2023/10/28 11:34:59;;;;;;;2.63;1.65;;;;;;;;;;10434256;28;20060;-84
2023/10/28 11:40:00;;;;;;;4.50;1.73;;;;;;;;;;10434058;28;20089;-84
2023/10/28 11:45:05;;;;;;;3.55;1.55;;;;;;;;;;10436900;28;20128;-86
2023/10/28 11:50:07;;;;;;;2.95;0.93;;;;;;;;;;10437554;28;20048;-86
2023/10/28 11:55:09;;;;;;;3.85;1.00;;;;;;;;;;10435079;28;20085;-85
2023/10/28 12:00:17;;;;;;;3.80;1.00;;;;;;;;;;10416140;22;20569;-86
2023/10/28 12:05:18;;;;;;;3.55;1.08;;;;;;;;;;10384410;28;20563;-87
2023/10/28 12:10:19;;;;;;;1.98;0.98;;;;;;;;;;10385627;28;20030;-87
2023/10/28 12:15:21;;;;;;;3.38;1.17;;;;;;;;;;10389659;28;20099;-88
2023/10/28 12:20:22;;;;;;;5.55;1.10;;;;;;;;;;10399690;28;20026;-89
2023/10/28 12:25:23;;;;;;;2.97;1.35;;;;;;;;;;10404274;28;20032;-88
2023/10/28 12:30:24;;;;;;;4.10;1.60;;;;;;;;;;10405960;28;20038;-88
2023/10/28 12:35:25;;;;;;;2.78;1.35;;;;;;;;;;10392537;28;20029;-88
2023/10/28 12:40:26;;;;;;;3.45;1.10;;;;;;;;;;10391111;28;20101;-87
2023/10/28 12:45:28;;;;;;;6.65;1.98;;;;;;;;;;10386700;28;20072;-87
2023/10/28 12:50:30;;;;;;;;;;;;;;;;;;10387966;28;20117;-87
2023/10/28 12:55:31;;;;;;;7.15;2.25;;;;;;;;;;10397286;28;19972;-87
2023/10/28 13:00:33;;;;;;;5.95;1.60;;;;;;;;;;10383909;28;20030;-88
2023/10/28 13:05:34;;;;;;;4.78;1.52;;;;;;;;;;10381540;28;20025;-87
2023/10/28 13:10:36;;;;;;;5.35;1.50;;;;;;;;;;10380902;28;20040;-88
2023/10/28 13:15:39;;;;;;;5.30;1.60;;;;;;;;;;10387888;28;20052;-83
2023/10/28 13:20:41;;;;;;;5.03;1.50;;;;;;;;;;10388494;28;20045;-82
2023/10/28 13:25:42;;;;;;;5.97;1.95;;;;;;;;;;10391401;28;20026;-83
2023/10/28 13:30:43;;;;;;;3.92;1.33;;;;;;;;;;10392954;28;20080;-83
2023/10/28 13:35:44;;;;;;;5.85;1.90;;;;;;;;;;10389756;28;20034;-83
2023/10/28 13:40:45;;;;;;;4.85;1.48;;;;;;;;;;10389180;28;20022;-83
2023/10/28 13:45:46;;;;;;;6.18;2.10;;;;;;;;;;10390909;28;20168;-83
2023/10/28 13:50:47;;;;;;;5.35;1.52;;;;;;;;;;10389181;28;20037;-82
2023/10/28 13:55:50;;;;;;;4.13;1.60;;;;;;;;;;10388206;28;20034;-83
2023/10/28 14:00:52;;;;;;;7.85;1.98;;;;;;;;;;10389959;28;20037;-82
2023/10/28 14:05:53;;;;;;;5.72;1.90;;;;;;;;;;10394689;28;20037;-82
2023/10/28 14:10:54;;;;;;;4.13;1.40;;;;;;;;;;10404726;28;20030;-84
2023/10/28 14:15:55;;;;;;;4.55;1.70;;;;;;;;;;10397235;28;20029;-84
2023/10/28 14:20:56;;;;;;;5.53;2.25;;;;;;;;;;10397080;28;20478;-84
2023/10/28 14:25:58;;;;;;;6.63;4.07;;;;;;;;;;10398001;28;20034;-85
2023/10/28 14:31:00;;;;;;;3.97;1.60;;;;;;;;;;10398017;28;20050;-84
2023/10/28 14:36:08;;;;;;;3.28;1.30;;;;;;;;;;10397166;28;20517;-85
2023/10/28 14:41:09;;;;;;;4.90;1.70;;;;;;;;;;10399486;28;20454;-84
2023/10/28 14:46:10;;;;;;;4.10;1.42;;;;;;;;;;10395005;28;20030;-84
2023/10/28 14:51:11;;;;;;;6.88;2.17;;;;;;;;;;10394316;28;20089;-84
2023/10/28 14:56:13;;;;;;;4.50;1.67;;;;;;;;;;10393338;28;20450;-85
2023/10/28 15:01:16;;;;;;;4.78;1.60;;;;;;;;;;10396145;28;20037;-84
2023/10/28 15:06:18;;;;;;;4.10;1.85;;;;;;;;;;10396477;28;20043;-84
2023/10/28 15:11:20;;;;;;;2.40;1.30;;;;;;;;;;10396653;28;20026;-83
2023/10/28 15:16:21;;;;;;;4.25;1.98;;;;;;;;;;10394483;28;20025;-83
2023/10/28 15:21:23;;;;;;;3.92;1.50;;;;;;;;;;10395791;28;20026;-83
2023/10/28 15:26:25;;;;;;;3.70;1.50;;;;;;;;;;10396965;28;20038;-84
2023/10/28 15:31:27;;;;;;;5.45;2.05;;;;;;;;;;10402257;28;20021;-83
2023/10/28 15:36:29;;;;;;;7.90;2.38;;;;;;;;;;10406205;28;20065;-83
2023/10/28 15:41:30;;;;;;;8.45;3.47;;;;;;;;;;10418680;28;20022;-84
2023/10/28 15:46:31;;;;;;;7.60;3.47;;;;;;;;;;10426506;28;20026;-84
2023/10/28 15:51:32;;;;;;;4.13;2.10;;;;;;;;;;10425078;28;20060;-84
2023/10/28 15:56:33;;;;;;;4.18;1.75;;;;;;;;;;10425299;28;20053;-86
2023/10/28 16:01:35;;;;;;;4.53;2.60;;;;;;;;;;10424734;28;20014;-83
2023/10/28 16:06:36;;;;;;;5.45;1.98;;;;;;;;;;10425139;28;20029;-84
2023/10/28 16:11:37;;;;;;;4.22;2.13;;;;;;;;;;10397564;28;20034;-84
2023/10/28 16:16:38;;;;;;;4.63;1.75;;;;;;;;;;10391961;28;20430;-84
2023/10/28 16:21:39;;;;;;;3.20;2.03;;;;;;;;;;10399506;28;20033;-84
2023/10/28 16:26:46;;;;;;;3.97;2.10;;;;;;;;;;10388086;28;20030;-83
2023/10/28 16:31:47;;;;;;;6.05;2.40;;;;;;;;;;10388937;28;20109;-84
2023/10/28 16:36:49;;;;;;;3.97;2.00;;;;;;;;;;10389815;28;20537;-83
2023/10/28 16:41:50;;;;;;;3.00;1.75;;;;;;;;;;10391804;28;20021;-83
2023/10/28 16:46:51;;;;;;;4.82;1.90;;;;;;;;;;10388434;28;20032;-83
2023/10/28 16:51:52;;;;;;;3.53;2.00;;;;;;;;;;10389369;28;20036;-83
2023/10/28 16:56:53;;;;;;;6.70;3.90;;;;;;;;;;10390147;28;20044;-84
2023/10/28 17:01:54;;;;;;;4.05;2.10;;;;;;;;;;10393270;28;20018;-84
2023/10/28 17:06:55;;;;;;;4.45;2.63;;;;;;;;;;10391479;28;20449;-84
2023/10/28 17:11:57;;;;;;;2.42;1.80;;;;;;;;;;10391246;28;20030;-84
2023/10/28 17:16:58;;;;;;;3.53;2.10;;;;;;;;;;10396074;28;20034;-83
2023/10/28 17:21:59;;;;;;;2.88;1.60;;;;;;;;;;10407935;28;20025;-83
2023/10/28 17:27:00;;;;;;;3.72;1.80;;;;;;;;;;10425002;28;20109;-86
2023/10/28 17:32:01;;;;;;;3.70;1.83;;;;;;;;;;10410332;28;20474;-83
2023/10/28 17:37:02;;;;;;;3.08;1.88;;;;;;;;;;10388572;28;20034;-84
2023/10/28 17:42:04;;;;;;;2.45;1.58;;;;;;;;;;10385075;28;20018;-84
2023/10/28 17:47:06;;;;;;;2.92;1.70;;;;;;;;;;10384463;28;20172;-83
2023/10/28 17:52:08;;;;;;;2.95;1.70;;;;;;;;;;10386039;28;20140;-83
2023/10/28 18:48:04;;;;;;;3.38;2.42;;;;;;;;;;10485368;28;20028;-86
2023/10/28 19:10:59;;;;;;;3.17;2.30;;;;;;;;;;10470670;28;20009;-88
